createdAt,value
2018-03-25T00:01:33.621Z,56.08
2018-03-25T00:04:03.568Z,56.43
2018-03-25T00:06:32.796Z,56.47
2018-03-25T00:09:01.789Z,56.70
2018-03-25T00:11:30.683Z,56.64
2018-03-25T00:13:59.954Z,56.42
2018-03-25T00:16:29.016Z,56.62
2018-03-25T00:18:57.912Z,56.52
2018-03-25T00:21:28.002Z,56.19
2018-03-25T00:23:56.864Z,56.23
2018-03-25T00:26:25.751Z,56.24
2018-03-25T00:28:56.254Z,56.10
2018-03-25T00:31:25.182Z,55.90
2018-03-25T00:33:54.176Z,55.79
2018-03-25T00:36:23.096Z,55.71
2018-03-25T00:38:52.017Z,55.59
2018-03-25T00:41:20.882Z,55.45
2018-03-25T00:43:51.117Z,55.55
2018-03-25T00:46:20.006Z,55.40
2018-03-25T00:48:48.898Z,54.97
2018-03-25T00:51:19.406Z,54.83
2018-03-25T00:53:48.296Z,54.94
2018-03-25T00:56:17.210Z,55.01
2018-03-25T00:58:46.489Z,55.08
2018-03-25T01:01:16.117Z,55.23
2018-03-25T01:03:45.378Z,55.35
2018-03-25T01:06:14.605Z,55.29
2018-03-25T01:08:43.533Z,55.30
2018-03-25T01:11:12.478Z,55.54
2018-03-25T01:13:42.429Z,55.58
2018-03-25T01:16:12.140Z,55.54
2018-03-25T01:18:49.611Z,55.40
2018-03-25T01:21:29.283Z,55.44
2018-03-25T01:23:58.447Z,55.79
2018-03-25T01:26:27.959Z,55.88
2018-03-25T01:28:56.831Z,55.78
2018-03-25T01:31:25.710Z,55.90
2018-03-25T01:33:54.920Z,56.10
2018-03-25T01:36:23.809Z,56.35
2018-03-25T01:38:52.651Z,56.53
2018-03-25T01:41:21.995Z,56.80
2018-03-25T01:43:50.936Z,57.41
2018-03-25T01:46:19.834Z,57.62
2018-03-25T01:48:48.758Z,57.69
2018-03-25T01:51:17.687Z,58.25
2018-03-25T01:53:46.601Z,58.57
2018-03-25T01:56:15.870Z,58.91
2018-03-25T01:58:44.821Z,59.20
2018-03-25T02:01:13.755Z,59.32
2018-03-25T02:03:44.014Z,59.31
2018-03-25T02:06:13.050Z,59.47
2018-03-25T02:08:41.961Z,59.03
2018-03-25T02:11:11.550Z,59.50
2018-03-25T02:13:40.407Z,59.71
2018-03-25T02:16:09.449Z,60.06
2018-03-25T02:18:39.753Z,60.18
2018-03-25T02:21:09.362Z,60.48
2018-03-25T02:23:38.410Z,60.38
2018-03-25T02:26:07.795Z,60.36
2018-03-25T02:28:36.675Z,60.27
2018-03-25T02:31:05.645Z,60.49
2018-03-25T02:33:34.991Z,60.39
2018-03-25T02:36:05.224Z,60.43
2018-03-25T02:38:34.072Z,60.69
2018-03-25T02:41:03.541Z,60.73
2018-03-25T02:43:32.408Z,60.84
2018-03-25T02:46:02.564Z,61.02
2018-03-25T02:48:31.985Z,61.31
2018-03-25T02:51:00.908Z,60.94
2018-03-25T02:53:29.812Z,61.26
2018-03-25T02:55:59.110Z,61.23
2018-03-25T02:58:27.964Z,61.17
2018-03-25T03:00:56.861Z,61.18
2018-03-25T03:03:25.759Z,61.46
2018-03-25T03:05:54.644Z,61.95
2018-03-25T03:08:23.981Z,62.11
2018-03-25T03:10:52.864Z,62.69
2018-03-25T03:13:21.760Z,62.81
2018-03-25T03:15:51.115Z,63.01
2018-03-25T03:18:20.105Z,63.10
2018-03-25T03:20:49.100Z,63.00
2018-03-25T03:23:18.529Z,63.09
2018-03-25T03:25:47.456Z,62.95
2018-03-25T03:28:16.706Z,63.16
2018-03-25T03:30:45.618Z,63.19
2018-03-25T03:33:14.745Z,63.03
2018-03-25T03:35:43.677Z,63.11
2018-03-25T03:38:12.990Z,63.35
2018-03-25T03:40:41.870Z,63.70
2018-03-25T03:43:11.316Z,63.74
2018-03-25T03:45:40.521Z,63.50
2018-03-25T03:48:09.804Z,63.57
2018-03-25T03:50:38.792Z,63.79
2018-03-25T03:53:08.194Z,63.96
2018-03-25T03:55:37.138Z,64.11
2018-03-25T03:58:06.243Z,64.13
2018-03-25T04:00:35.588Z,64.51
2018-03-25T04:03:04.503Z,64.53
2018-03-25T04:05:33.366Z,64.59
2018-03-25T04:08:04.723Z,64.96
2018-03-25T04:10:33.654Z,65.35
2018-03-25T04:13:03.939Z,65.13
2018-03-25T04:15:33.201Z,65.08
2018-03-25T04:18:02.484Z,65.11
2018-03-25T04:20:31.445Z,65.37
2018-03-25T04:23:00.863Z,65.41
2018-03-25T04:25:29.858Z,65.06
2018-03-25T04:27:58.803Z,65.09
2018-03-25T04:30:28.261Z,65.28
2018-03-25T04:32:57.175Z,64.95
2018-03-25T04:35:26.114Z,64.87
2018-03-25T04:37:55.453Z,65.05
2018-03-25T04:40:24.322Z,64.92
2018-03-25T04:42:53.239Z,65.03
2018-03-25T04:45:22.432Z,65.09
2018-03-25T04:50:19.314Z,65.46
2018-03-25T04:52:48.580Z,65.69
2018-03-25T04:55:17.437Z,66.09
2018-03-25T04:57:46.333Z,66.49
2018-03-25T05:00:17.767Z,66.42
2018-03-25T05:02:47.060Z,66.43
2018-03-25T05:05:16.440Z,66.85
2018-03-25T05:07:45.452Z,66.73
2018-03-25T05:10:14.928Z,66.57
2018-03-25T05:12:43.871Z,66.74
2018-03-25T05:15:13.166Z,66.86
2018-03-25T05:17:42.145Z,67.07
2018-03-25T05:20:11.773Z,67.07
2018-03-25T05:22:40.943Z,66.90
2018-03-25T05:25:09.803Z,66.97
2018-03-25T05:27:38.715Z,67.07
2018-03-25T05:30:08.073Z,66.54
2018-03-25T05:32:37.392Z,66.58
2018-03-25T05:35:06.439Z,66.38
2018-03-25T05:37:35.718Z,66.07
2018-03-25T05:40:05.373Z,66.26
2018-03-25T05:42:34.268Z,65.82
2018-03-25T05:45:04.885Z,66.02
2018-03-25T05:47:33.783Z,66.09
2018-03-25T05:50:03.655Z,66.04
2018-03-25T05:52:32.904Z,65.73
2018-03-25T05:55:01.869Z,65.59
2018-03-25T05:57:30.997Z,65.64
2018-03-25T05:59:59.887Z,65.69
2018-03-25T06:02:28.743Z,65.59
2018-03-25T06:04:57.613Z,65.29
2018-03-25T06:07:26.996Z,64.88
2018-03-25T06:09:56.359Z,64.74
2018-03-25T06:12:25.375Z,64.43
2018-03-25T06:14:55.697Z,64.31
2018-03-25T06:17:24.719Z,64.09
2018-03-25T06:19:53.715Z,64.19
2018-03-25T06:22:23.112Z,64.00
2018-03-25T06:24:52.061Z,64.06
2018-03-25T06:28:23.594Z,64.29
2018-03-25T06:30:52.700Z,64.49
2018-03-25T06:33:22.487Z,64.95
2018-03-25T06:35:51.957Z,63.93
2018-03-25T06:38:20.922Z,63.54
2018-03-25T06:40:49.804Z,63.44
2018-03-25T06:43:19.205Z,63.17
2018-03-25T06:45:48.411Z,63.06
2018-03-25T06:48:17.368Z,63.01
2018-03-25T06:50:47.298Z,63.01
2018-03-25T06:53:16.240Z,62.84
2018-03-25T06:55:45.184Z,62.81
2018-03-25T06:58:14.863Z,62.65
2018-03-25T07:00:43.905Z,62.36
2018-03-25T07:03:13.353Z,62.24
2018-03-25T07:05:42.710Z,62.50
2018-03-25T07:08:11.724Z,62.19
2018-03-25T07:10:40.711Z,62.01
2018-03-25T07:13:09.678Z,61.96
2018-03-25T07:15:38.750Z,61.44
2018-03-25T07:18:07.912Z,61.25
2018-03-25T07:20:37.326Z,61.06
2018-03-25T07:23:06.660Z,61.22
2018-03-25T07:25:35.524Z,61.00
2018-03-25T07:28:05.614Z,60.70
2018-03-25T07:30:34.576Z,60.75
2018-03-25T07:33:03.552Z,60.49
2018-03-25T07:35:32.839Z,60.21
2018-03-25T07:38:02.610Z,60.22
2018-03-25T07:40:31.605Z,59.90
2018-03-25T07:43:01.132Z,59.58
2018-03-25T07:45:30.064Z,59.40
2018-03-25T07:47:59.031Z,59.46
2018-03-25T07:50:27.970Z,59.81
2018-03-25T07:52:56.997Z,59.36
2018-03-25T07:55:25.888Z,59.49
2018-03-25T07:57:55.223Z,59.48
2018-03-25T08:00:25.308Z,59.40
2018-03-25T08:02:54.247Z,58.86
2018-03-25T08:05:23.630Z,59.05
2018-03-25T08:07:52.630Z,58.75
2018-03-25T08:10:21.602Z,57.98
2018-03-25T08:12:50.945Z,57.64
2018-03-25T08:15:20.498Z,57.20
2018-03-25T08:17:49.397Z,57.32
2018-03-25T08:20:19.718Z,56.92
2018-03-25T08:22:48.699Z,56.09
2018-03-25T08:25:17.661Z,56.43
2018-03-25T08:27:47.101Z,55.63
2018-03-25T08:30:16.105Z,55.14
2018-03-25T08:32:45.037Z,54.03
2018-03-25T08:35:14.228Z,52.75
2018-03-25T08:37:43.148Z,51.53
2018-03-25T08:40:12.098Z,51.02
2018-03-25T08:42:42.465Z,50.54
2018-03-25T08:45:11.338Z,50.32
2018-03-25T08:47:40.190Z,49.99
2018-03-25T08:50:09.528Z,50.37
2018-03-25T08:52:38.529Z,49.75
2018-03-25T08:55:07.802Z,49.04
2018-03-25T08:57:36.700Z,49.11
2018-03-25T09:00:07.184Z,48.74
2018-03-25T09:02:37.509Z,48.67
2018-03-25T09:05:06.678Z,47.81
2018-03-25T09:07:35.626Z,47.76
2018-03-25T09:10:07.182Z,47.86
2018-03-25T09:12:36.367Z,47.18
2018-03-25T09:15:06.140Z,46.92
2018-03-25T09:17:35.579Z,47.42
2018-03-25T09:20:06.804Z,47.06
2018-03-25T09:22:35.746Z,47.25
2018-03-25T09:25:05.822Z,46.63
2018-03-25T09:27:35.674Z,46.37
2018-03-25T09:30:05.349Z,45.79
2018-03-25T09:32:34.520Z,45.22
2018-03-25T09:35:04.062Z,44.90
2018-03-25T09:37:33.759Z,45.06
2018-03-25T09:40:04.482Z,44.61
2018-03-25T09:42:33.378Z,43.53
2018-03-25T09:45:02.793Z,44.19
2018-03-25T09:47:32.140Z,43.32
2018-03-25T09:50:03.908Z,43.25
2018-03-25T09:52:32.817Z,42.68
2018-03-25T09:55:02.237Z,42.70
2018-03-25T09:57:31.141Z,41.91
2018-03-25T10:00:00.030Z,41.28
2018-03-25T10:02:33.496Z,40.24
2018-03-25T10:05:03.165Z,39.51
2018-03-25T10:07:32.066Z,39.60
2018-03-25T10:10:01.275Z,39.70
2018-03-25T10:12:30.193Z,40.47
2018-03-25T10:14:59.118Z,40.06
2018-03-25T10:17:28.991Z,39.02
2018-03-25T10:19:57.871Z,38.94
2018-03-25T10:22:26.810Z,38.38
2018-03-25T10:24:56.094Z,37.67
2018-03-25T10:27:25.023Z,36.89
2018-03-25T10:59:23.503Z,34.68
2018-03-25T11:01:52.530Z,35.57
2018-03-25T11:04:21.420Z,34.41
2018-03-25T11:06:50.288Z,33.02
2018-03-25T11:09:19.200Z,32.50
2018-03-25T11:11:48.107Z,33.27
2018-03-25T11:14:17.541Z,33.52
2018-03-25T11:16:46.432Z,33.05
2018-03-25T11:19:15.785Z,32.50
2018-03-25T11:21:45.245Z,32.80
2018-03-25T11:24:14.623Z,32.59
2018-03-25T11:26:44.687Z,30.29
2018-03-25T11:29:13.904Z,29.65
2018-03-25T11:31:42.858Z,28.62
2018-03-25T11:34:12.138Z,28.86
2018-03-25T11:36:41.515Z,28.44
2018-03-25T11:39:10.465Z,27.83
2018-03-25T11:41:46.392Z,27.89
2018-03-25T11:44:15.933Z,26.98
2018-03-25T11:46:44.881Z,27.18
2018-03-25T11:49:13.772Z,26.44
2018-03-25T11:51:42.960Z,25.86
2018-03-25T11:54:11.835Z,25.61
2018-03-25T11:56:41.486Z,25.72
2018-03-25T11:59:10.372Z,25.15
2018-03-25T12:01:39.285Z,24.91
2018-03-25T12:04:08.994Z,24.31
2018-03-25T12:06:37.999Z,24.01
2018-03-25T12:09:06.945Z,23.92
2018-03-25T12:11:36.139Z,23.73
2018-03-25T12:14:05.978Z,24.13
2018-03-25T12:16:34.863Z,23.92
2018-03-25T12:19:04.524Z,23.68
2018-03-25T12:21:33.477Z,23.65
2018-03-25T12:24:04.419Z,23.75
2018-03-25T12:26:33.359Z,23.51
2018-03-25T12:29:02.270Z,23.94
2018-03-25T12:31:31.505Z,23.48
2018-03-25T12:34:00.396Z,23.69
2018-03-25T12:36:29.349Z,23.89
2018-03-25T12:38:58.318Z,24.19
2018-03-25T12:41:27.226Z,24.31
2018-03-25T12:43:56.453Z,24.28
2018-03-25T12:46:25.467Z,23.63
2018-03-25T12:48:54.480Z,23.96
2018-03-25T12:51:23.684Z,23.65
2018-03-25T12:53:52.660Z,22.87
2018-03-25T12:56:21.773Z,22.90
2018-03-25T12:58:51.434Z,23.07
2018-03-25T13:01:21.669Z,23.75
2018-03-25T13:03:50.840Z,24.29
2018-03-25T13:08:58.819Z,23.13
2018-03-25T13:11:27.693Z,23.14
2018-03-25T13:13:58.571Z,22.99
2018-03-25T13:16:27.496Z,22.90
2018-03-25T13:18:56.467Z,22.99
2018-03-25T13:21:25.428Z,22.64
2018-03-25T13:23:54.365Z,22.42
2018-03-25T13:26:23.740Z,21.84
2018-03-25T13:28:52.768Z,22.04
2018-03-25T13:31:22.680Z,22.49
2018-03-25T13:33:52.085Z,22.27
2018-03-25T13:36:21.284Z,22.68
2018-03-25T13:38:51.261Z,21.64
2018-03-25T13:41:20.625Z,21.09
2018-03-25T13:43:49.625Z,21.23
2018-03-25T13:46:18.621Z,20.99
2018-03-25T13:48:47.525Z,21.19
2018-03-25T13:51:16.464Z,20.42
2018-03-25T13:53:45.817Z,20.26
2018-03-25T13:56:14.729Z,19.84
2018-03-25T13:58:43.627Z,19.62
2018-03-25T14:01:12.785Z,19.93
2018-03-25T14:03:41.699Z,19.29
2018-03-25T14:06:10.634Z,19.48
2018-03-25T14:08:39.973Z,19.89
2018-03-25T14:11:09.116Z,18.71
2018-03-25T14:13:37.981Z,18.79
2018-03-25T14:16:07.104Z,18.68
2018-03-25T14:18:36.300Z,18.98
2018-03-25T14:21:06.457Z,18.44
2018-03-25T14:23:35.771Z,18.02
2018-03-25T14:26:05.445Z,18.37
2018-03-25T14:28:34.418Z,18.63
2018-03-25T14:31:04.079Z,18.17
2018-03-25T14:33:32.962Z,17.57
2018-03-25T14:36:03.551Z,17.66
2018-03-25T14:38:32.442Z,17.56
2018-03-25T14:41:01.512Z,17.22
2018-03-25T14:43:30.847Z,17.02
2018-03-25T14:45:59.752Z,17.78
2018-03-25T14:48:28.612Z,18.86
2018-03-25T14:50:57.524Z,19.20
2018-03-25T14:53:26.421Z,19.28
2018-03-25T14:55:55.288Z,20.08
2018-03-25T14:58:24.660Z,19.94
2018-03-25T15:00:53.516Z,20.34
2018-03-25T15:03:22.442Z,20.53
2018-03-25T15:05:51.580Z,21.33
2018-03-25T15:08:20.513Z,21.28
2018-03-25T15:10:49.440Z,21.38
2018-03-25T15:13:18.958Z,21.41
2018-03-25T15:15:47.865Z,21.22
2018-03-25T15:18:17.279Z,21.60
2018-03-25T15:20:46.152Z,21.89
2018-03-25T15:23:15.070Z,22.18
2018-03-25T15:25:44.269Z,21.98
2018-03-25T15:28:13.156Z,21.75
2018-03-25T15:30:42.102Z,22.12
2018-03-25T15:33:11.307Z,22.05
2018-03-25T15:35:40.191Z,21.69
2018-03-25T15:38:09.420Z,22.42
2018-03-25T15:40:38.805Z,21.88
2018-03-25T15:43:07.736Z,21.45
2018-03-25T15:45:36.630Z,22.57
2018-03-25T15:48:07.663Z,21.66
2018-03-25T15:50:36.557Z,22.05
2018-03-25T15:53:05.517Z,21.66
2018-03-25T15:55:34.389Z,22.54
2018-03-25T15:58:04.423Z,22.63
2018-03-25T16:00:34.149Z,23.85
2018-03-25T16:03:04.121Z,22.86
2018-03-25T16:05:32.969Z,23.94
2018-03-25T16:08:02.955Z,24.39
2018-03-25T16:10:31.862Z,25.02
2018-03-25T16:13:00.771Z,25.08
2018-03-25T16:15:29.960Z,24.78
2018-03-25T16:17:59.888Z,24.91
2018-03-25T16:20:28.780Z,24.89
2018-03-25T16:22:57.950Z,24.42
2018-03-25T16:25:26.869Z,25.08
2018-03-25T16:27:55.710Z,26.74
2018-03-25T16:30:25.752Z,25.30
2018-03-25T16:32:54.596Z,25.66
2018-03-25T16:35:23.445Z,25.29
2018-03-25T16:37:52.307Z,27.37
2018-03-25T16:40:21.167Z,26.34
2018-03-25T16:42:50.045Z,27.73
2018-03-25T16:45:19.317Z,27.07
2018-03-25T16:47:48.195Z,27.76
2018-03-25T16:50:17.634Z,27.39
2018-03-25T16:52:46.711Z,27.88
2018-03-25T16:55:15.631Z,28.88
2018-03-25T16:57:44.539Z,29.45
2018-03-25T17:00:13.595Z,29.84
2018-03-25T17:02:42.477Z,30.66
2018-03-25T17:05:11.713Z,31.16
2018-03-25T17:07:40.579Z,31.37
2018-03-25T17:10:10.846Z,31.11
2018-03-25T17:12:40.229Z,31.37
2018-03-25T17:15:09.248Z,31.62
2018-03-25T17:17:38.216Z,31.99
2018-03-25T17:20:07.362Z,33.60
2018-03-25T17:22:36.230Z,33.69
2018-03-25T17:25:06.037Z,33.01
2018-03-25T17:27:34.916Z,33.61
2018-03-25T17:30:04.644Z,33.94
2018-03-25T17:32:34.234Z,34.29
2018-03-25T17:35:03.926Z,34.09
2018-03-25T17:37:33.517Z,33.89
2018-03-25T17:40:03.561Z,34.11
2018-03-25T17:42:32.516Z,35.71
2018-03-25T17:45:01.603Z,34.48
2018-03-25T17:47:30.819Z,35.03
2018-03-25T17:49:59.871Z,34.19
2018-03-25T17:52:28.712Z,34.31
2018-03-25T17:54:57.907Z,34.31
2018-03-25T17:57:26.790Z,34.46
2018-03-25T17:59:56.696Z,35.13
2018-03-25T18:02:25.561Z,34.71
2018-03-25T18:04:54.435Z,34.75
2018-03-25T18:07:23.620Z,34.76
2018-03-25T18:09:52.523Z,34.84
2018-03-25T18:12:21.439Z,35.01
2018-03-25T18:14:50.596Z,36.01
2018-03-25T18:17:33.462Z,36.30
2018-03-25T18:19:48.636Z,35.64
2018-03-25T18:22:17.825Z,35.88
2018-03-25T18:24:46.675Z,35.74
2018-03-25T18:27:15.702Z,37.04
2018-03-25T18:29:44.939Z,37.16
2018-03-25T18:32:14.105Z,36.41
2018-03-25T18:34:43.078Z,36.33
2018-03-25T18:37:12.280Z,37.05
2018-03-25T18:39:41.211Z,36.35
2018-03-25T18:42:10.292Z,36.41
2018-03-25T18:44:39.172Z,36.25
2018-03-25T18:47:08.097Z,36.65
2018-03-25T18:49:37.858Z,36.51
2018-03-25T18:52:06.941Z,37.80
2018-03-25T18:54:35.852Z,37.49
2018-03-25T18:57:05.240Z,37.93
2018-03-25T18:59:34.101Z,37.12
2018-03-25T19:02:04.791Z,37.25
2018-03-25T19:04:35.593Z,37.14
2018-03-25T19:07:04.984Z,37.32
2018-03-25T19:09:33.845Z,37.38
2018-03-25T19:12:04.626Z,37.46
2018-03-25T19:14:33.496Z,37.46
2018-03-25T19:17:02.498Z,37.54
2018-03-25T19:19:31.704Z,37.88
2018-03-25T19:22:00.656Z,38.01
2018-03-25T19:24:29.615Z,37.98
2018-03-25T19:26:58.590Z,38.17
2018-03-25T19:29:27.527Z,38.40
2018-03-25T19:31:56.804Z,38.39
2018-03-25T19:34:26.322Z,38.55
2018-03-25T19:36:55.258Z,39.67
2018-03-25T19:39:24.475Z,39.48
2018-03-25T19:41:53.643Z,39.37
2018-03-25T19:44:22.548Z,39.71
2018-03-25T19:46:51.464Z,40.22
2018-03-25T19:49:20.315Z,40.15
2018-03-25T19:51:49.189Z,40.41
2018-03-25T19:54:18.379Z,40.75
2018-03-25T19:56:47.306Z,40.74
2018-03-25T19:59:16.235Z,40.61
2018-03-25T20:01:45.434Z,41.66
2018-03-25T20:04:14.558Z,41.77
2018-03-25T20:06:43.505Z,40.69
2018-03-25T20:09:13.160Z,41.29
2018-03-25T20:11:42.078Z,42.03
2018-03-25T20:14:11.765Z,41.51
2018-03-25T20:16:40.631Z,41.61
2018-03-25T20:19:09.560Z,41.49
2018-03-25T20:21:38.705Z,41.54
2018-03-25T20:24:07.664Z,42.78
2018-03-25T20:26:36.569Z,42.50
2018-03-25T20:29:06.190Z,43.26
2018-03-25T20:31:35.153Z,42.45
2018-03-25T20:34:05.171Z,42.34
2018-03-25T20:36:34.392Z,42.70
2018-03-25T20:39:04.582Z,42.69
2018-03-25T20:41:33.590Z,42.85
2018-03-25T20:44:04.051Z,43.33
2018-03-25T20:46:32.971Z,43.46
2018-03-25T20:49:02.187Z,44.09
2018-03-25T20:51:31.925Z,44.14
2018-03-25T20:54:00.827Z,44.20
2018-03-25T20:56:30.105Z,44.56
2018-03-25T20:58:59.018Z,45.73
2018-03-25T21:01:27.931Z,45.13
2018-03-25T21:03:56.836Z,45.19
2018-03-25T21:06:26.057Z,45.30
2018-03-25T21:08:54.959Z,45.45
2018-03-25T21:11:24.103Z,45.99
2018-03-25T21:13:53.100Z,46.14
2018-03-25T21:16:21.979Z,46.10
2018-03-25T21:18:51.105Z,45.70
2018-03-25T21:21:19.987Z,45.57
2018-03-25T21:23:48.870Z,45.84
2018-03-25T21:26:18.719Z,46.67
2018-03-25T21:28:47.648Z,45.96
2018-03-25T21:31:16.528Z,45.99
2018-03-25T21:33:45.473Z,45.83
2018-03-25T21:36:14.312Z,46.46
2018-03-25T21:38:43.855Z,46.46
2018-03-25T21:41:12.783Z,46.42
2018-03-25T21:43:41.661Z,46.54
2018-03-25T21:46:11.866Z,46.48
2018-03-25T21:48:40.774Z,46.75
2018-03-25T21:51:09.788Z,47.05
2018-03-25T21:53:40.745Z,47.43
2018-03-25T21:56:09.719Z,47.58
2018-03-25T21:58:38.577Z,47.98
2018-03-25T22:01:08.315Z,47.63
2018-03-25T22:03:37.220Z,47.70
2018-03-25T22:06:06.104Z,47.63
2018-03-25T22:08:35.237Z,47.70
2018-03-25T22:11:05.291Z,47.53
2018-03-25T22:13:34.184Z,47.47
2018-03-25T22:16:03.731Z,47.52
2018-03-25T22:18:32.628Z,47.31
2018-03-25T22:21:02.361Z,46.99
2018-03-25T22:23:31.211Z,47.31
2018-03-25T22:26:00.076Z,47.12
2018-03-25T22:28:29.204Z,47.23
2018-03-25T22:30:58.062Z,47.63
2018-03-25T22:33:26.969Z,48.15
2018-03-25T22:35:56.458Z,48.41
2018-03-25T22:38:25.327Z,48.03
2018-03-25T22:40:54.173Z,48.17
2018-03-25T22:43:23.055Z,48.14
2018-03-25T22:45:51.942Z,47.97
2018-03-25T22:48:20.784Z,48.18
2018-03-25T22:50:50.043Z,48.59
2018-03-25T22:53:19.031Z,48.26
2018-03-25T22:55:47.886Z,48.24
2018-03-25T22:58:16.732Z,48.26
2018-03-25T23:00:45.679Z,48.15
2018-03-25T23:03:14.837Z,48.01
2018-03-25T23:05:43.926Z,48.17
2018-03-25T23:08:13.220Z,48.15
2018-03-25T23:10:42.160Z,48.26
2018-03-25T23:13:11.045Z,48.48
2018-03-25T23:15:40.045Z,48.54
2018-03-25T23:18:09.396Z,48.53
2018-03-25T23:20:38.245Z,48.50
2018-03-25T23:23:07.314Z,48.39
2018-03-25T23:25:36.448Z,48.53
2018-03-25T23:28:06.026Z,48.58
2018-03-25T23:30:34.879Z,48.41
2018-03-25T23:33:04.170Z,48.33
2018-03-25T23:35:33.030Z,48.33
2018-03-25T23:38:05.322Z,48.62
2018-03-25T23:40:35.131Z,48.48
2018-03-25T23:43:04.491Z,48.52
2018-03-25T23:45:33.657Z,48.49
2018-03-25T23:48:03.266Z,48.72
2018-03-25T23:50:32.202Z,49.04
2018-03-25T23:53:01.520Z,48.97
2018-03-25T23:55:30.387Z,49.12
2018-03-25T23:57:59.225Z,49.33
